createdAt,value
2019-03-24T00:00:37.897Z,82.47
2019-03-24T00:01:41.380Z,82.41
2019-03-24T00:02:37.892Z,82.27
2019-03-24T00:03:37.864Z,83.03
2019-03-24T00:04:37.859Z,83.03
2019-03-24T00:05:37.841Z,83.03
2019-03-24T00:06:37.849Z,83.13
2019-03-24T00:07:37.828Z,83.33
2019-03-24T00:08:37.799Z,83.27
2019-03-24T00:09:37.799Z,83.03
2019-03-24T00:10:37.796Z,82.31
2019-03-24T00:11:37.795Z,81.69
2019-03-24T00:12:37.759Z,81.69
2019-03-24T00:13:37.755Z,81.69
2019-03-24T00:14:37.744Z,81.48
2019-03-24T00:15:37.737Z,81.62
2019-03-24T00:16:37.734Z,81.11
2019-03-24T00:17:37.703Z,81.42
2019-03-24T00:18:37.686Z,81.62
2019-03-24T00:19:37.682Z,81.32
2019-03-24T00:20:37.671Z,81.01
2019-03-24T00:21:37.664Z,80.91
2019-03-24T00:22:37.681Z,80.08
2019-03-24T00:23:37.646Z,79.77
2019-03-24T00:24:37.621Z,79.98
2019-03-24T00:25:37.613Z,79.26
2019-03-24T00:26:37.605Z,78.54
2019-03-24T00:27:37.624Z,78.33
2019-03-24T00:28:37.582Z,78.23
2019-03-24T00:29:37.582Z,78.54
2019-03-24T00:30:37.557Z,78.54
2019-03-24T00:31:37.543Z,78.23
2019-03-24T00:32:37.626Z,77.72
2019-03-24T00:33:37.532Z,76.90
2019-03-24T00:34:37.524Z,75.67
2019-03-24T00:35:37.524Z,75.35
2019-03-24T00:36:37.488Z,75.46
2019-03-24T00:37:37.519Z,73.81
2019-03-24T00:38:37.495Z,73.40
2019-03-24T00:39:37.457Z,73.81
2019-03-24T00:40:37.460Z,73.13
2019-03-24T00:41:37.443Z,72.72
2019-03-24T00:42:37.450Z,72.81
2019-03-24T00:43:37.414Z,72.20
2019-03-24T00:44:37.407Z,71.89
2019-03-24T00:45:37.420Z,70.45
2019-03-24T00:46:37.375Z,70.56
2019-03-24T00:47:37.394Z,70.45
2019-03-24T00:48:37.355Z,70.25
2019-03-24T00:49:37.364Z,69.87
2019-03-24T00:50:37.368Z,70.48
2019-03-24T00:51:37.331Z,70.59
2019-03-24T00:52:37.336Z,70.69
2019-03-24T00:53:37.320Z,70.69
2019-03-24T00:54:37.293Z,70.07
2019-03-24T00:55:37.283Z,70.18
2019-03-24T00:56:37.275Z,69.97
2019-03-24T00:57:37.727Z,70.79
2019-03-24T00:58:37.252Z,69.97
2019-03-24T00:59:37.246Z,69.97
2019-03-24T01:00:37.250Z,69.49
2019-03-24T01:01:37.214Z,69.59
2019-03-24T01:02:37.241Z,69.49
2019-03-24T01:03:37.190Z,69.59
2019-03-24T01:04:37.191Z,69.49
2019-03-24T01:05:37.177Z,69.18
2019-03-24T01:06:37.164Z,69.18
2019-03-24T01:07:37.182Z,69.70
2019-03-24T01:08:37.138Z,69.79
2019-03-24T01:09:37.170Z,69.79
2019-03-24T01:10:37.115Z,69.90
2019-03-24T01:11:37.099Z,69.49
2019-03-24T01:12:37.101Z,69.49
2019-03-24T01:13:37.118Z,69.38
2019-03-24T01:14:37.077Z,69.28
2019-03-24T01:15:47.137Z,69.18
2019-03-24T01:16:38.052Z,68.56
2019-03-24T01:17:37.035Z,68.98
2019-03-24T01:18:37.051Z,68.77
2019-03-24T01:19:37.022Z,68.46
2019-03-24T01:20:37.011Z,68.98
2019-03-24T01:21:36.997Z,68.46
2019-03-24T01:22:36.982Z,68.49
2019-03-24T01:23:36.997Z,69.01
2019-03-24T01:24:36.962Z,68.39
2019-03-24T01:25:36.956Z,69.01
2019-03-24T01:26:36.963Z,69.01
2019-03-24T01:27:36.927Z,68.90
2019-03-24T01:28:36.923Z,69.11
2019-03-24T01:29:36.905Z,69.11
2019-03-24T01:30:36.898Z,69.42
2019-03-24T01:31:36.886Z,69.21
2019-03-24T01:32:36.884Z,69.31
2019-03-24T01:33:36.885Z,69.62
2019-03-24T01:34:36.864Z,69.73
2019-03-24T01:35:36.838Z,69.42
2019-03-24T01:36:36.831Z,70.96
2019-03-24T01:37:36.831Z,70.55
2019-03-24T01:38:36.819Z,69.21
2019-03-24T01:39:36.798Z,69.73
2019-03-24T01:40:36.777Z,69.52
2019-03-24T01:41:36.775Z,70.07
2019-03-24T01:42:36.765Z,69.65
2019-03-24T01:43:36.786Z,69.96
2019-03-24T01:44:36.735Z,70.37
2019-03-24T01:45:36.738Z,70.07
2019-03-24T01:46:36.719Z,70.14
2019-03-24T01:47:36.708Z,70.55
2019-03-24T01:48:36.695Z,69.96
2019-03-24T01:49:36.695Z,70.24
2019-03-24T01:50:36.660Z,70.48
2019-03-24T01:51:36.665Z,70.07
2019-03-24T01:52:36.663Z,71.30
2019-03-24T01:53:36.652Z,70.68
2019-03-24T01:54:36.647Z,71.61
2019-03-24T01:55:36.626Z,71.61
2019-03-24T01:56:36.605Z,72.13
2019-03-24T01:57:36.595Z,71.92
2019-03-24T01:58:36.582Z,72.23
2019-03-24T01:59:36.599Z,72.03
2019-03-24T02:00:36.562Z,72.44
2019-03-24T02:01:36.582Z,72.33
2019-03-24T02:02:36.542Z,72.85
2019-03-24T02:03:36.540Z,73.47
2019-03-24T02:04:36.539Z,73.47
2019-03-24T02:05:36.496Z,73.36
2019-03-24T02:06:38.588Z,73.16
2019-03-24T02:07:36.500Z,72.96
2019-03-24T02:08:36.472Z,72.33
2019-03-24T02:09:36.489Z,73.36
2019-03-24T02:10:36.468Z,72.33
2019-03-24T02:11:36.440Z,73.05
2019-03-24T02:12:36.435Z,73.36
2019-03-24T02:13:36.416Z,73.26
2019-03-24T02:14:36.446Z,73.23
2019-03-24T02:15:36.399Z,73.16
2019-03-24T02:16:36.410Z,73.36
2019-03-24T02:17:36.374Z,73.33
2019-03-24T02:18:36.370Z,73.26
2019-03-24T02:19:36.384Z,73.26
2019-03-24T02:20:36.343Z,73.33
2019-03-24T02:21:36.322Z,73.47
2019-03-24T02:22:36.322Z,73.68
2019-03-24T02:23:36.297Z,73.57
2019-03-24T02:24:36.331Z,73.68
2019-03-24T02:25:36.292Z,73.88
2019-03-24T02:26:36.284Z,73.47
2019-03-24T02:27:36.271Z,73.88
2019-03-24T02:28:36.260Z,73.78
2019-03-24T02:29:36.235Z,73.36
2019-03-24T02:30:36.258Z,73.78
2019-03-24T02:31:36.217Z,73.47
2019-03-24T02:32:36.306Z,73.68
2019-03-24T02:33:36.212Z,73.71
2019-03-24T02:34:36.203Z,73.81
2019-03-24T02:35:36.197Z,73.40
2019-03-24T02:36:36.172Z,73.71
2019-03-24T02:37:36.183Z,73.71
2019-03-24T02:38:36.144Z,73.81
2019-03-24T02:39:36.127Z,73.74
2019-03-24T02:40:36.137Z,74.26
2019-03-24T02:41:36.107Z,74.26
2019-03-24T02:42:36.111Z,74.05
2019-03-24T02:43:36.105Z,73.95
2019-03-24T02:44:36.068Z,74.67
2019-03-24T02:45:36.088Z,74.98
2019-03-24T02:46:36.053Z,74.88
2019-03-24T02:47:36.046Z,75.09
2019-03-24T02:48:36.032Z,74.77
2019-03-24T02:49:36.029Z,75.29
2019-03-24T02:50:36.065Z,74.98
2019-03-24T02:51:36.014Z,75.09
2019-03-24T02:52:36.010Z,74.77
2019-03-24T02:53:36.020Z,74.77
2019-03-24T02:54:35.981Z,75.18
2019-03-24T02:55:35.952Z,74.77
2019-03-24T02:56:35.977Z,74.67
2019-03-24T02:57:35.926Z,74.77
2019-03-24T02:58:35.932Z,74.36
2019-03-24T02:59:35.928Z,74.57
2019-03-24T03:00:35.915Z,74.46
2019-03-24T03:01:35.923Z,74.46
2019-03-24T03:02:35.876Z,74.88
2019-03-24T03:03:35.868Z,75.09
2019-03-24T03:04:35.861Z,74.77
2019-03-24T03:05:35.842Z,75.29
2019-03-24T03:06:35.835Z,75.09
2019-03-24T03:07:35.837Z,76.12
2019-03-24T03:08:35.808Z,76.12
2019-03-24T03:09:35.801Z,75.18
2019-03-24T03:10:35.831Z,75.18
2019-03-24T03:11:35.783Z,75.70
2019-03-24T03:12:35.811Z,75.81
2019-03-24T03:13:35.752Z,75.91
2019-03-24T03:14:35.747Z,75.29
2019-03-24T03:15:35.747Z,75.63
2019-03-24T03:16:38.852Z,76.15
2019-03-24T03:17:35.715Z,76.25
2019-03-24T03:18:35.763Z,76.35
2019-03-24T03:19:35.698Z,76.56
2019-03-24T03:20:35.682Z,76.46
2019-03-24T03:21:35.669Z,77.28
2019-03-24T03:22:35.666Z,77.28
2019-03-24T03:23:35.676Z,76.35
2019-03-24T03:24:35.642Z,76.46
2019-03-24T03:25:35.630Z,76.56
2019-03-24T03:26:35.613Z,76.46
2019-03-24T03:27:35.607Z,76.35
2019-03-24T03:28:35.607Z,75.95
2019-03-24T03:29:35.573Z,75.95
2019-03-24T03:30:35.566Z,76.04
2019-03-24T03:31:35.561Z,76.04
2019-03-24T03:32:35.552Z,76.04
2019-03-24T03:33:35.576Z,76.15
2019-03-24T03:34:35.516Z,76.35
2019-03-24T03:35:35.537Z,76.56
2019-03-24T03:36:35.512Z,76.98
2019-03-24T03:37:35.483Z,77.22
2019-03-24T03:38:35.501Z,77.18
2019-03-24T03:39:35.476Z,77.11
2019-03-24T03:40:35.465Z,76.90
2019-03-24T03:41:35.449Z,77.63
2019-03-24T03:42:35.427Z,78.05
2019-03-24T03:43:35.453Z,77.73
2019-03-24T03:44:35.413Z,77.84
2019-03-24T03:45:35.410Z,77.73
2019-03-24T03:46:35.401Z,77.63
2019-03-24T03:47:35.402Z,78.14
2019-03-24T03:48:35.405Z,77.22
2019-03-24T03:49:35.354Z,77.01
2019-03-24T03:50:35.347Z,77.53
2019-03-24T03:51:35.335Z,77.94
2019-03-24T03:52:35.321Z,78.05
2019-03-24T03:53:35.370Z,78.56
2019-03-24T03:54:35.308Z,78.39
2019-03-24T03:55:35.286Z,78.18
2019-03-24T03:56:35.328Z,78.28
2019-03-24T03:57:35.265Z,78.70
2019-03-24T03:58:35.259Z,78.70
2019-03-24T03:59:35.282Z,78.70
2019-03-24T04:00:35.259Z,78.49
2019-03-24T04:01:35.251Z,78.49
2019-03-24T04:02:35.232Z,78.08
2019-03-24T04:03:35.203Z,77.98
2019-03-24T04:04:35.213Z,78.59
2019-03-24T04:05:35.183Z,78.39
2019-03-24T04:06:35.170Z,78.39
2019-03-24T04:07:35.154Z,78.39
2019-03-24T04:08:35.152Z,78.59
2019-03-24T04:09:35.154Z,78.80
2019-03-24T04:10:35.115Z,78.49
2019-03-24T04:11:35.115Z,78.74
2019-03-24T04:12:35.115Z,78.22
2019-03-24T04:13:35.087Z,77.87
2019-03-24T04:14:35.105Z,77.67
2019-03-24T04:15:35.070Z,78.01
2019-03-24T04:16:35.050Z,77.91
2019-03-24T04:17:35.043Z,78.01
2019-03-24T04:18:35.039Z,78.22
2019-03-24T04:19:35.049Z,78.32
2019-03-24T04:20:35.018Z,78.01
2019-03-24T04:21:34.993Z,77.81
2019-03-24T04:22:34.997Z,77.60
2019-03-24T04:23:34.999Z,77.50
2019-03-24T04:24:34.986Z,77.70
2019-03-24T04:25:34.973Z,77.91
2019-03-24T04:26:34.944Z,77.39
2019-03-24T04:27:34.939Z,77.50
2019-03-24T04:28:34.925Z,77.70
2019-03-24T04:29:34.926Z,76.98
2019-03-24T04:30:34.890Z,76.29
2019-03-24T04:31:34.894Z,77.39
2019-03-24T04:32:34.872Z,76.39
2019-03-24T04:33:34.865Z,76.46
2019-03-24T04:34:34.874Z,76.87
2019-03-24T04:35:34.853Z,76.98
2019-03-24T04:36:34.840Z,76.87
2019-03-24T04:37:34.826Z,76.98
2019-03-24T04:38:34.809Z,77.33
2019-03-24T04:39:34.813Z,77.19
2019-03-24T04:40:34.800Z,77.39
2019-03-24T04:41:34.775Z,77.84
2019-03-24T04:42:34.775Z,77.53
2019-03-24T04:43:34.773Z,77.74
2019-03-24T04:44:34.771Z,77.33
2019-03-24T04:45:34.736Z,77.84
2019-03-24T04:46:34.731Z,77.74
2019-03-24T04:47:34.706Z,77.94
2019-03-24T04:48:34.702Z,78.05
2019-03-24T04:49:34.691Z,78.36
2019-03-24T04:50:34.710Z,78.56
2019-03-24T04:51:34.665Z,78.67
2019-03-24T04:52:34.656Z,78.67
2019-03-24T04:53:34.649Z,78.67
2019-03-24T04:54:34.637Z,78.36
2019-03-24T04:55:34.643Z,78.36
2019-03-24T04:56:34.614Z,77.94
2019-03-24T04:57:34.601Z,77.74
2019-03-24T04:58:34.587Z,77.53
2019-03-24T04:59:34.577Z,77.74
2019-03-24T05:00:34.597Z,77.74
2019-03-24T05:01:34.553Z,77.64
2019-03-24T05:02:34.555Z,77.64
2019-03-24T05:03:34.541Z,77.74
2019-03-24T05:04:34.531Z,77.64
2019-03-24T05:05:34.547Z,77.22
2019-03-24T05:06:34.506Z,77.64
2019-03-24T05:07:34.512Z,78.19
2019-03-24T05:08:34.475Z,77.56
2019-03-24T05:09:34.475Z,77.98
2019-03-24T05:10:34.483Z,77.67
2019-03-24T05:11:34.445Z,77.67
2019-03-24T05:12:34.434Z,77.53
2019-03-24T05:13:34.433Z,77.87
2019-03-24T05:14:34.419Z,77.56
2019-03-24T05:15:34.424Z,77.56
2019-03-24T05:16:34.393Z,78.08
2019-03-24T05:17:34.377Z,77.94
2019-03-24T05:18:34.363Z,77.47
2019-03-24T05:19:34.352Z,77.74
2019-03-24T05:20:34.370Z,77.74
2019-03-24T05:21:34.331Z,78.08
2019-03-24T05:22:34.328Z,77.77
2019-03-24T05:23:34.311Z,77.56
2019-03-24T05:24:34.296Z,77.84
2019-03-24T05:25:34.327Z,78.08
2019-03-24T05:26:34.281Z,77.98
2019-03-24T05:27:34.276Z,77.87
2019-03-24T05:28:34.259Z,78.08
2019-03-24T05:29:34.255Z,78.08
2019-03-24T05:30:34.231Z,78.36
2019-03-24T05:31:34.253Z,78.08
2019-03-24T05:32:34.220Z,78.25
2019-03-24T05:33:34.207Z,78.08
2019-03-24T05:34:34.202Z,78.15
2019-03-24T05:35:34.187Z,77.74
2019-03-24T05:36:34.191Z,77.87
2019-03-24T05:37:34.169Z,77.87
2019-03-24T05:38:34.158Z,77.56
2019-03-24T05:39:34.146Z,77.77
2019-03-24T05:40:34.124Z,77.67
2019-03-24T05:41:34.135Z,77.87
2019-03-24T05:42:34.110Z,77.67
2019-03-24T05:43:34.086Z,77.77
2019-03-24T05:44:34.088Z,77.98
2019-03-24T05:45:34.073Z,77.67
2019-03-24T05:46:34.085Z,78.08
2019-03-24T05:47:37.282Z,78.29
2019-03-24T05:48:34.030Z,78.22
2019-03-24T05:49:34.039Z,78.50
2019-03-24T05:50:34.012Z,78.50
2019-03-24T05:51:34.028Z,78.50
2019-03-24T05:52:33.995Z,78.64
2019-03-24T05:53:33.992Z,78.81
2019-03-24T05:54:33.985Z,78.85
2019-03-24T05:55:33.968Z,78.70
2019-03-24T05:56:33.957Z,78.60
2019-03-24T05:57:33.935Z,78.29
2019-03-24T05:58:33.942Z,78.39
2019-03-24T05:59:33.907Z,78.50
2019-03-24T06:00:33.907Z,78.29
2019-03-24T06:01:33.901Z,78.19
2019-03-24T06:02:33.882Z,78.29
2019-03-24T06:03:33.866Z,77.98
2019-03-24T06:04:33.865Z,77.77
2019-03-24T06:05:33.857Z,77.87
2019-03-24T06:06:33.852Z,78.19
2019-03-24T06:07:33.821Z,78.19
2019-03-24T06:08:35.798Z,78.53
2019-03-24T06:09:33.813Z,78.91
2019-03-24T06:10:33.805Z,79.02
2019-03-24T06:11:33.777Z,78.81
2019-03-24T06:12:33.787Z,78.70
2019-03-24T06:13:33.759Z,78.15
2019-03-24T06:14:33.768Z,77.98
2019-03-24T06:15:33.733Z,77.74
2019-03-24T06:16:33.717Z,77.53
2019-03-24T06:17:33.743Z,77.64
2019-03-24T06:18:33.700Z,77.01
2019-03-24T06:19:33.695Z,77.53
2019-03-24T06:20:33.692Z,76.91
2019-03-24T06:21:33.673Z,77.53
2019-03-24T06:22:33.693Z,77.74
2019-03-24T06:23:33.658Z,77.36
2019-03-24T06:24:33.642Z,77.05
2019-03-24T06:25:35.040Z,76.74
2019-03-24T06:26:33.608Z,77.26
2019-03-24T06:27:33.625Z,77.05
2019-03-24T06:28:33.594Z,77.36
2019-03-24T06:29:33.586Z,77.98
2019-03-24T06:30:33.584Z,77.56
2019-03-24T06:31:33.562Z,77.98
2019-03-24T06:32:33.563Z,77.77
2019-03-24T06:33:33.535Z,77.87
2019-03-24T06:34:33.516Z,78.12
2019-03-24T06:35:33.515Z,78.19
2019-03-24T06:36:33.495Z,78.29
2019-03-24T06:37:33.511Z,78.29
2019-03-24T06:38:33.483Z,77.98
2019-03-24T06:39:33.472Z,78.05
2019-03-24T06:40:33.450Z,77.64
2019-03-24T06:41:33.464Z,77.22
2019-03-24T06:42:33.451Z,77.12
2019-03-24T06:43:33.414Z,77.22
2019-03-24T06:44:33.422Z,76.91
2019-03-24T06:45:33.400Z,76.50
2019-03-24T06:46:33.386Z,76.91
2019-03-24T06:47:33.411Z,76.81
2019-03-24T06:48:33.382Z,77.74
2019-03-24T06:49:33.361Z,76.91
2019-03-24T06:50:33.350Z,76.91
2019-03-24T06:51:33.338Z,76.50
2019-03-24T06:52:33.363Z,76.70
2019-03-24T06:53:33.324Z,76.70
2019-03-24T06:54:33.433Z,76.39
2019-03-24T06:55:33.290Z,76.50
2019-03-24T06:56:33.316Z,76.29
2019-03-24T06:57:33.311Z,76.50
2019-03-24T06:58:33.274Z,77.12
2019-03-24T06:59:33.263Z,77.22
2019-03-24T07:00:33.244Z,76.50
2019-03-24T07:01:33.223Z,76.46
2019-03-24T07:02:33.205Z,77.08
2019-03-24T07:03:33.231Z,76.46
2019-03-24T07:04:33.185Z,76.56
2019-03-24T07:05:33.187Z,76.56
2019-03-24T07:06:34.803Z,76.87
2019-03-24T07:07:33.152Z,76.53
2019-03-24T07:08:33.163Z,76.22
2019-03-24T07:09:33.136Z,76.53
2019-03-24T07:10:33.122Z,75.60
2019-03-24T07:11:33.120Z,75.49
2019-03-24T07:12:33.105Z,75.29
2019-03-24T07:13:33.106Z,76.01
2019-03-24T07:14:33.088Z,76.01
2019-03-24T07:15:33.077Z,75.70
2019-03-24T07:16:33.058Z,76.01
2019-03-24T07:17:33.053Z,75.74
2019-03-24T07:18:33.068Z,76.22
2019-03-24T07:19:33.028Z,76.22
2019-03-24T07:20:33.007Z,76.15
2019-03-24T07:21:33.052Z,76.43
2019-03-24T07:22:32.991Z,75.91
2019-03-24T07:23:32.998Z,75.60
2019-03-24T07:24:32.959Z,75.81
2019-03-24T07:25:32.966Z,75.39
2019-03-24T07:26:32.945Z,76.01
2019-03-24T07:27:32.942Z,76.12
2019-03-24T07:28:32.955Z,75.70
2019-03-24T07:29:32.913Z,76.22
2019-03-24T07:30:32.910Z,75.60
2019-03-24T07:31:32.894Z,74.84
2019-03-24T07:32:32.881Z,74.33
2019-03-24T07:33:32.889Z,74.33
2019-03-24T07:34:32.857Z,74.74
2019-03-24T07:35:32.859Z,74.43
2019-03-24T07:36:32.832Z,74.53
2019-03-24T07:37:32.829Z,74.63
2019-03-24T07:38:32.841Z,74.53
2019-03-24T07:39:32.813Z,74.95
2019-03-24T07:40:32.799Z,74.22
2019-03-24T07:41:32.787Z,74.22
2019-03-24T07:42:32.799Z,74.81
2019-03-24T07:43:32.768Z,74.71
2019-03-24T07:44:32.782Z,74.50
2019-03-24T07:45:32.736Z,74.71
2019-03-24T07:46:32.764Z,74.29
2019-03-24T07:47:32.708Z,74.19
2019-03-24T07:48:32.711Z,73.98
2019-03-24T07:49:32.713Z,73.43
2019-03-24T07:50:32.679Z,73.26
2019-03-24T07:51:32.668Z,73.05
2019-03-24T07:52:32.668Z,73.36
2019-03-24T07:53:32.644Z,72.44
2019-03-24T07:54:32.645Z,72.54
2019-03-24T07:55:32.620Z,72.23
2019-03-24T07:56:32.648Z,72.13
2019-03-24T07:57:32.620Z,72.33
2019-03-24T07:58:32.605Z,73.05
2019-03-24T07:59:32.602Z,72.30
2019-03-24T08:00:32.574Z,72.40
2019-03-24T08:01:32.568Z,72.30
2019-03-24T08:02:32.554Z,71.99
2019-03-24T08:03:32.544Z,72.30
2019-03-24T08:04:32.559Z,71.99
2019-03-24T08:05:32.526Z,72.09
2019-03-24T08:06:32.518Z,72.19
2019-03-24T08:07:32.493Z,71.58
2019-03-24T08:08:32.477Z,70.92
2019-03-24T08:09:32.489Z,70.96
2019-03-24T08:10:32.475Z,71.03
2019-03-24T08:11:32.460Z,71.26
2019-03-24T08:12:32.435Z,72.30
2019-03-24T08:13:32.419Z,72.27
2019-03-24T08:14:32.447Z,71.75
2019-03-24T08:15:32.407Z,71.03
2019-03-24T08:16:32.406Z,71.03
2019-03-24T08:17:32.399Z,71.55
2019-03-24T08:18:32.379Z,71.34
2019-03-24T08:19:32.385Z,71.34
2019-03-24T08:20:32.348Z,71.03
2019-03-24T08:21:32.336Z,71.44
2019-03-24T08:22:32.335Z,70.82
2019-03-24T08:23:32.319Z,71.13
2019-03-24T08:24:32.332Z,71.41
2019-03-24T08:25:32.297Z,71.03
2019-03-24T08:26:32.295Z,71.00
2019-03-24T08:27:32.274Z,70.68
2019-03-24T08:28:32.253Z,70.58
2019-03-24T08:29:32.267Z,70.68
2019-03-24T08:30:32.234Z,70.58
2019-03-24T08:31:32.231Z,70.17
2019-03-24T08:32:32.223Z,69.55
2019-03-24T08:33:32.200Z,70.07
2019-03-24T08:34:32.219Z,69.86
2019-03-24T08:35:32.189Z,70.28
2019-03-24T08:36:32.169Z,70.68
2019-03-24T08:37:32.165Z,70.58
2019-03-24T08:38:32.141Z,71.00
2019-03-24T08:39:32.159Z,71.51
2019-03-24T08:40:32.128Z,71.48
2019-03-24T08:41:32.114Z,71.41
2019-03-24T08:42:32.098Z,70.68
2019-03-24T08:43:32.103Z,69.93
2019-03-24T08:44:32.088Z,70.76
2019-03-24T08:45:32.098Z,70.76
2019-03-24T08:46:32.063Z,70.45
2019-03-24T08:47:32.046Z,69.73
2019-03-24T08:48:40.435Z,68.70
2019-03-24T08:49:33.061Z,67.94
2019-03-24T08:50:32.058Z,67.33
2019-03-24T08:51:32.030Z,66.40
2019-03-24T08:52:31.988Z,66.71
2019-03-24T08:53:31.971Z,65.68
2019-03-24T08:54:31.972Z,65.03
2019-03-24T08:55:31.981Z,65.86
2019-03-24T08:56:31.966Z,65.75
2019-03-24T08:57:32.571Z,65.95
2019-03-24T08:58:31.926Z,65.44
2019-03-24T08:59:31.914Z,64.51
2019-03-24T09:00:31.929Z,64.75
2019-03-24T09:01:31.897Z,65.47
2019-03-24T09:02:31.897Z,65.23
2019-03-24T09:03:32.720Z,64.86
2019-03-24T09:04:31.858Z,65.58
2019-03-24T09:05:33.694Z,64.62
2019-03-24T09:06:31.839Z,64.86
2019-03-24T09:07:31.854Z,65.06
2019-03-24T09:08:31.824Z,65.75
2019-03-24T09:09:31.826Z,64.93
2019-03-24T09:10:31.870Z,64.83
2019-03-24T09:11:31.793Z,65.23
2019-03-24T09:12:31.771Z,64.83
2019-03-24T09:13:31.787Z,65.13
2019-03-24T09:14:31.755Z,64.83
2019-03-24T09:15:31.753Z,64.51
2019-03-24T09:16:31.728Z,64.51
2019-03-24T09:17:31.742Z,64.51
2019-03-24T09:18:31.730Z,64.93
2019-03-24T09:19:31.705Z,65.44
2019-03-24T09:20:41.182Z,65.55
2019-03-24T09:21:32.666Z,65.95
2019-03-24T09:22:31.658Z,65.31
2019-03-24T09:23:31.667Z,64.83
2019-03-24T09:24:31.639Z,65.34
2019-03-24T09:25:31.707Z,65.13
2019-03-24T09:26:31.672Z,64.93
2019-03-24T09:27:31.627Z,64.79
2019-03-24T09:28:31.593Z,66.06
2019-03-24T09:29:31.584Z,66.78
2019-03-24T09:30:31.609Z,66.13
2019-03-24T09:31:31.569Z,65.62
2019-03-24T09:32:31.564Z,65.31
2019-03-24T09:33:31.551Z,64.90
2019-03-24T09:34:31.559Z,64.76
2019-03-24T09:35:31.596Z,64.66
2019-03-24T09:36:31.510Z,63.32
2019-03-24T09:37:31.495Z,63.22
2019-03-24T09:38:31.501Z,63.32
2019-03-24T09:39:31.492Z,63.74
2019-03-24T09:40:31.479Z,63.74
2019-03-24T09:41:31.456Z,63.53
2019-03-24T09:42:31.439Z,63.12
2019-03-24T09:43:31.425Z,63.74
2019-03-24T09:44:31.458Z,63.32
2019-03-24T09:45:31.438Z,60.96
2019-03-24T09:46:31.407Z,60.73
2019-03-24T09:47:31.392Z,60.65
2019-03-24T09:48:31.390Z,60.03
2019-03-24T09:49:31.373Z,60.65
2019-03-24T09:50:31.363Z,60.35
2019-03-24T09:51:31.364Z,61.27
2019-03-24T09:52:31.334Z,60.14
2019-03-24T09:53:31.321Z,60.45
2019-03-24T09:54:31.324Z,59.93
2019-03-24T09:55:31.307Z,57.44
2019-03-24T09:56:31.301Z,56.64
2019-03-24T09:57:31.283Z,56.41
2019-03-24T09:58:31.265Z,56.62
2019-03-24T09:59:31.269Z,57.44
2019-03-24T10:00:31.241Z,57.64
2019-03-24T10:01:31.263Z,57.93
2019-03-24T10:02:31.236Z,58.75
2019-03-24T10:03:31.219Z,60.49
2019-03-24T10:04:31.198Z,60.19
2019-03-24T10:05:31.215Z,58.54
2019-03-24T10:06:31.201Z,57.54
2019-03-24T10:07:31.179Z,59.26
2019-03-24T10:08:31.152Z,58.98
2019-03-24T10:09:31.150Z,59.16
2019-03-24T10:10:31.150Z,58.03
2019-03-24T10:11:31.157Z,57.72
2019-03-24T10:12:31.106Z,57.10
2019-03-24T10:13:31.096Z,58.03
2019-03-24T10:14:31.091Z,57.62
2019-03-24T10:15:31.081Z,58.23
2019-03-24T10:16:31.074Z,57.10
2019-03-24T10:17:31.051Z,56.79
2019-03-24T10:18:31.081Z,56.15
2019-03-24T10:19:31.031Z,57.18
2019-03-24T10:20:31.022Z,56.87
2019-03-24T10:21:31.044Z,56.87
2019-03-24T10:22:31.009Z,57.18
2019-03-24T10:23:30.985Z,57.15
2019-03-24T10:24:30.976Z,57.39
2019-03-24T10:25:30.963Z,56.13
2019-03-24T10:26:30.973Z,55.82
2019-03-24T10:27:30.947Z,55.62
2019-03-24T10:28:30.940Z,55.59
2019-03-24T10:29:30.925Z,54.66
2019-03-24T10:30:30.913Z,55.18
2019-03-24T10:31:30.936Z,54.38
2019-03-24T10:32:30.883Z,54.36
2019-03-24T10:33:30.885Z,54.66
2019-03-24T10:34:30.877Z,53.87
2019-03-24T10:35:30.853Z,53.87
2019-03-24T10:36:30.859Z,53.25
2019-03-24T10:37:30.827Z,54.28
2019-03-24T10:38:30.833Z,53.66
2019-03-24T10:39:32.006Z,54.08
2019-03-24T10:40:30.802Z,54.69
2019-03-24T10:41:30.809Z,54.18
2019-03-24T10:42:30.788Z,52.12
2019-03-24T10:43:30.783Z,52.44
2019-03-24T10:44:30.758Z,49.77
2019-03-24T10:45:30.742Z,49.97
2019-03-24T10:46:30.752Z,50.07
2019-03-24T10:47:30.723Z,49.66
2019-03-24T10:48:33.824Z,49.13
2019-03-24T10:49:30.756Z,49.87
2019-03-24T10:50:30.706Z,49.87
2019-03-24T10:51:30.732Z,49.46
2019-03-24T10:52:30.664Z,49.46
2019-03-24T10:53:30.673Z,49.74
2019-03-24T10:54:30.653Z,50.67
2019-03-24T10:55:30.646Z,50.13
2019-03-24T10:56:30.654Z,49.62
2019-03-24T10:57:30.625Z,48.80
2019-03-24T10:58:30.633Z,48.69
2019-03-24T10:59:30.598Z,47.96
2019-03-24T11:00:30.583Z,48.36
2019-03-24T11:01:30.643Z,48.47
2019-03-24T11:02:30.585Z,48.14
2019-03-24T11:03:30.590Z,48.03
2019-03-24T11:04:30.536Z,48.34
2019-03-24T11:05:30.526Z,47.42
2019-03-24T11:06:30.515Z,48.77
2019-03-24T11:07:30.584Z,49.08
2019-03-24T11:08:30.483Z,49.29
2019-03-24T11:09:30.469Z,49.67
2019-03-24T11:10:30.532Z,49.57
2019-03-24T11:11:30.500Z,50.59
2019-03-24T11:12:30.482Z,50.80
2019-03-24T11:13:30.447Z,50.39
2019-03-24T11:14:30.415Z,50.29
2019-03-24T11:15:30.398Z,50.29
2019-03-24T11:16:30.416Z,50.09
2019-03-24T11:17:30.433Z,50.49
2019-03-24T11:18:30.393Z,49.77
2019-03-24T11:19:35.690Z,50.18
2019-03-24T11:20:31.358Z,50.09
2019-03-24T11:21:30.347Z,50.70
2019-03-24T11:22:30.352Z,50.59
2019-03-24T11:23:30.332Z,49.77
2019-03-24T11:24:30.338Z,50.29
2019-03-24T11:25:30.300Z,49.16
2019-03-24T11:26:30.290Z,49.88
2019-03-24T11:27:31.188Z,49.14
2019-03-24T11:28:30.266Z,50.26
2019-03-24T11:29:30.282Z,49.44
2019-03-24T11:30:30.237Z,50.06
2019-03-24T11:31:30.216Z,49.55
2019-03-24T11:32:30.238Z,49.63
2019-03-24T11:33:30.209Z,48.40
2019-03-24T11:34:30.206Z,48.40
2019-03-24T11:35:30.183Z,48.30
2019-03-24T11:36:30.173Z,48.19
2019-03-24T11:37:30.168Z,48.30
2019-03-24T11:38:30.139Z,48.30
2019-03-24T11:39:30.146Z,48.71
2019-03-24T11:40:30.129Z,48.50
2019-03-24T11:41:30.120Z,47.68
2019-03-24T11:42:30.153Z,47.58
2019-03-24T11:43:30.105Z,47.68
2019-03-24T11:44:30.085Z,46.37
2019-03-24T11:45:30.082Z,47.68
2019-03-24T11:46:30.069Z,46.17
2019-03-24T11:47:30.062Z,45.64
2019-03-24T11:48:30.046Z,46.27
2019-03-24T11:49:30.044Z,45.94
2019-03-24T11:50:30.049Z,44.71
2019-03-24T11:51:30.013Z,43.49
2019-03-24T11:52:30.082Z,44.92
2019-03-24T11:53:29.988Z,43.82
2019-03-24T11:54:29.971Z,43.79
2019-03-24T11:55:29.962Z,42.67
2019-03-24T11:56:29.961Z,42.99
2019-03-24T11:57:29.960Z,43.08
2019-03-24T11:58:29.924Z,43.90
2019-03-24T11:59:29.923Z,44.10
2019-03-24T12:00:29.925Z,43.18
2019-03-24T12:01:38.017Z,42.26
2019-03-24T12:02:30.920Z,42.36
2019-03-24T12:03:29.876Z,41.95
2019-03-24T12:04:29.865Z,43.37
2019-03-24T12:05:29.854Z,42.46
2019-03-24T12:06:29.842Z,42.65
2019-03-24T12:07:29.852Z,43.16
2019-03-24T12:08:29.817Z,43.65
2019-03-24T12:09:29.796Z,43.35
2019-03-24T12:10:29.798Z,44.06
2019-03-24T12:11:29.782Z,42.22
2019-03-24T12:12:29.838Z,41.73
2019-03-24T12:13:29.768Z,42.34
2019-03-24T12:14:29.765Z,42.96
2019-03-24T12:15:29.753Z,42.73
2019-03-24T12:16:29.745Z,43.24
2019-03-24T12:17:29.743Z,42.83
2019-03-24T12:18:29.717Z,41.81
2019-03-24T12:19:29.699Z,42.63
2019-03-24T12:20:29.698Z,42.22
2019-03-24T12:21:29.667Z,41.81
2019-03-24T12:22:29.687Z,42.83
2019-03-24T12:23:29.661Z,42.32
2019-03-24T12:24:29.638Z,42.12
2019-03-24T12:25:29.628Z,43.24
2019-03-24T12:26:29.633Z,42.10
2019-03-24T12:27:29.626Z,41.91
2019-03-24T12:28:29.599Z,42.02
2019-03-24T12:29:29.583Z,42.50
2019-03-24T12:30:29.572Z,42.20
2019-03-24T12:31:29.562Z,43.32
2019-03-24T12:32:29.568Z,41.59
2019-03-24T12:33:29.540Z,42.91
2019-03-24T12:34:29.521Z,42.91
2019-03-24T12:35:29.536Z,42.71
2019-03-24T12:36:29.536Z,42.61
2019-03-24T12:37:29.598Z,43.12
2019-03-24T12:38:29.487Z,43.12
2019-03-24T12:39:29.468Z,42.61
2019-03-24T12:40:29.473Z,43.32
2019-03-24T12:41:29.556Z,43.12
2019-03-24T12:42:29.477Z,42.90
2019-03-24T12:43:29.437Z,42.61
2019-03-24T12:44:29.427Z,42.91
2019-03-24T12:45:29.420Z,43.12
2019-03-24T12:46:29.401Z,43.02
2019-03-24T12:47:29.744Z,43.32
2019-03-24T12:48:29.422Z,43.24
2019-03-24T12:49:29.379Z,42.81
2019-03-24T12:50:31.715Z,42.73
2019-03-24T12:51:29.358Z,43.02
2019-03-24T12:52:29.360Z,42.81